createdAt,value
2019-04-01T00:00:18.036Z,96.90
2019-04-01T00:02:48.462Z,96.90
2019-04-01T00:05:19.114Z,97.00
2019-04-01T00:07:49.543Z,97.10
2019-04-01T00:10:20.098Z,97.20
2019-04-01T00:12:50.555Z,97.30
2019-04-01T00:15:20.953Z,97.30
2019-04-01T00:17:51.342Z,97.40
2019-04-01T00:20:21.746Z,97.50
2019-04-01T00:22:52.350Z,97.40
2019-04-01T00:25:23.141Z,97.50
2019-04-01T00:27:53.626Z,97.50
2019-04-01T00:30:24.079Z,97.70
2019-04-01T00:32:54.545Z,97.90
2019-04-01T00:35:24.935Z,97.70
2019-04-01T00:37:55.403Z,98.10
2019-04-01T00:40:25.846Z,97.50
2019-04-01T00:43:04.115Z,97.60
2019-04-01T00:45:36.093Z,97.70
2019-04-01T00:48:07.034Z,97.80
2019-04-01T00:50:37.494Z,98.00
2019-04-01T00:53:07.932Z,98.00
2019-04-01T00:55:38.313Z,98.10
2019-04-01T00:58:08.708Z,98.00
2019-04-01T01:00:39.115Z,98.50
2019-04-01T01:03:09.507Z,98.70
2019-04-01T01:05:40.163Z,98.80
2019-04-01T01:08:10.544Z,99.20
2019-04-01T01:10:40.920Z,99.20
2019-04-01T01:13:11.419Z,99.30
2019-04-01T01:15:41.844Z,99.30
2019-04-01T01:18:12.258Z,99.20
2019-04-01T01:20:42.699Z,99.20
2019-04-01T01:23:13.033Z,98.70
2019-04-01T01:25:43.598Z,98.50
2019-04-01T01:28:13.953Z,98.50
2019-04-01T01:30:44.498Z,98.80
2019-04-01T01:33:14.897Z,98.80
2019-04-01T01:35:45.298Z,99.00
2019-04-01T01:38:15.731Z,99.10
2019-04-01T01:40:46.124Z,99.20
2019-04-01T01:43:16.540Z,99.00
2019-04-01T01:45:47.006Z,99.00
2019-04-01T01:48:17.400Z,98.90
2019-04-01T01:50:47.894Z,98.80
2019-04-01T01:53:18.917Z,98.80
2019-04-01T01:55:49.395Z,98.90
2019-04-01T01:58:19.748Z,98.80
2019-04-01T02:00:50.125Z,99.10
2019-04-01T02:03:20.716Z,98.90
2019-04-01T02:05:51.168Z,99.20
2019-04-01T02:08:21.600Z,98.90
2019-04-01T02:10:52.037Z,99.00
2019-04-01T02:13:22.546Z,99.00
2019-04-01T02:15:52.929Z,99.30
2019-04-01T02:18:23.433Z,99.50
2019-04-01T02:20:53.854Z,99.50
2019-04-01T02:23:24.300Z,99.50
2019-04-01T02:25:54.787Z,99.70
2019-04-01T02:28:25.216Z,99.90
2019-04-01T02:30:55.627Z,99.90
2019-04-01T02:33:26.039Z,99.90
2019-04-01T02:35:56.476Z,99.80
2019-04-01T02:38:26.908Z,99.90
2019-04-01T02:40:57.429Z,99.90
2019-04-01T02:43:27.876Z,99.90
2019-04-01T02:45:58.248Z,99.90
2019-04-01T02:48:28.709Z,99.90
2019-04-01T02:50:59.092Z,99.90
2019-04-01T02:53:29.642Z,99.90
2019-04-01T02:56:00.025Z,99.90
2019-04-01T02:58:30.423Z,99.90
2019-04-01T03:01:00.882Z,99.90
2019-04-01T03:03:31.413Z,99.90
2019-04-01T03:06:01.876Z,99.90
2019-04-01T03:08:32.248Z,99.90
2019-04-01T03:11:02.739Z,99.90
2019-04-01T03:13:33.329Z,99.90
2019-04-01T03:16:03.747Z,99.90
2019-04-01T03:18:34.176Z,99.80
2019-04-01T03:21:04.573Z,99.80
2019-04-01T03:23:34.966Z,99.80
2019-04-01T03:26:05.437Z,99.90
2019-04-01T03:28:35.845Z,99.90
2019-04-01T03:31:06.283Z,99.90
2019-04-01T03:33:36.720Z,99.90
2019-04-01T03:36:07.137Z,99.90
2019-04-01T03:38:37.566Z,99.90
2019-04-01T03:41:08.139Z,99.10
2019-04-01T03:43:40.425Z,98.30
2019-04-01T03:46:12.566Z,97.20
2019-04-01T03:48:43.538Z,96.50
2019-04-01T03:51:17.247Z,95.90
2019-04-01T03:53:50.900Z,95.40
2019-04-01T03:56:28.923Z,94.80
2019-04-01T03:59:06.225Z,93.60
2019-04-01T04:01:38.515Z,93.90
2019-04-01T04:04:16.940Z,94.00
2019-04-01T04:06:46.736Z,93.20
2019-04-01T04:09:22.056Z,92.90
2019-04-01T04:11:53.835Z,92.70
2019-04-01T04:14:24.455Z,92.30
2019-04-01T04:16:55.263Z,92.90
2019-04-01T04:19:39.115Z,92.60
2019-04-01T04:22:10.877Z,91.80
2019-04-01T04:24:43.964Z,90.20
2019-04-01T04:27:17.266Z,90.00
2019-04-01T04:30:17.738Z,90.00
2019-04-01T04:32:45.019Z,90.80
2019-04-01T04:35:19.310Z,90.20
2019-04-01T04:38:02.813Z,86.30
2019-04-01T04:40:46.925Z,86.90
2019-04-01T04:43:21.862Z,84.20
2019-04-01T04:46:02.807Z,83.90
2019-04-01T04:48:33.314Z,82.20
2019-04-01T04:51:12.845Z,82.40
2019-04-01T04:53:43.232Z,80.00
2019-04-01T04:56:13.723Z,79.80
2019-04-01T04:58:44.289Z,78.60
2019-04-01T05:01:14.704Z,76.80
2019-04-01T05:03:46.726Z,76.30
2019-04-01T05:06:20.159Z,74.20
2019-04-01T05:08:50.676Z,77.30
2019-04-01T05:11:21.127Z,77.90
2019-04-01T05:13:51.961Z,77.70
2019-04-01T05:16:25.165Z,76.90
2019-04-01T05:18:55.651Z,70.70
2019-04-01T05:21:28.979Z,74.00
2019-04-01T05:24:00.391Z,76.90
2019-04-01T05:26:31.733Z,78.00
2019-04-01T05:29:04.467Z,79.40
2019-04-01T05:31:38.478Z,77.60
2019-04-01T05:34:12.868Z,74.70
2019-04-01T05:36:43.429Z,74.20
2019-04-01T05:39:13.798Z,73.30
2019-04-01T05:41:44.501Z,71.80
2019-04-01T05:44:15.392Z,69.70
2019-04-01T05:46:45.794Z,68.20
2019-04-01T05:49:16.608Z,59.40
2019-04-01T05:51:46.983Z,55.70
2019-04-01T05:54:17.547Z,56.40
2019-04-01T05:56:47.937Z,59.60
2019-04-01T05:59:18.439Z,60.80
2019-04-01T06:01:50.273Z,60.60
2019-04-01T06:04:20.696Z,66.70
2019-04-01T06:06:57.679Z,70.10
2019-04-01T06:09:28.239Z,75.60
2019-04-01T06:11:58.844Z,74.40
2019-04-01T06:14:29.458Z,71.80
2019-04-01T06:17:00.056Z,74.40
2019-04-01T06:19:30.446Z,76.60
2019-04-01T06:22:00.901Z,79.40
2019-04-01T06:24:32.103Z,82.80
2019-04-01T06:27:03.010Z,85.20
2019-04-01T06:29:33.480Z,88.60
2019-04-01T06:32:03.962Z,89.70
2019-04-01T06:34:34.877Z,90.10
2019-04-01T06:37:05.491Z,90.30
2019-04-01T06:39:35.868Z,91.40
2019-04-01T06:42:07.253Z,92.10
2019-04-01T06:44:38.093Z,92.50
2019-04-01T06:47:08.529Z,92.10
2019-04-01T06:49:38.992Z,92.10
2019-04-01T06:52:12.066Z,91.70
2019-04-01T06:54:43.879Z,91.00
2019-04-01T06:57:14.763Z,90.90
2019-04-01T06:59:45.662Z,90.80
2019-04-01T07:02:16.274Z,90.30
2019-04-01T07:04:47.247Z,90.00
2019-04-01T07:07:19.378Z,89.10
2019-04-01T07:09:50.821Z,89.20
2019-04-01T07:12:21.389Z,88.40
2019-04-01T07:14:51.796Z,88.60
2019-04-01T07:17:22.275Z,88.20
2019-04-01T07:19:52.674Z,88.50
2019-04-01T07:22:23.119Z,89.40
2019-04-01T07:24:53.604Z,88.90
2019-04-01T07:27:24.056Z,90.00
2019-04-01T07:29:54.511Z,89.80
2019-04-01T07:32:25.027Z,90.10
2019-04-01T07:34:55.426Z,90.00
2019-04-01T07:37:26.266Z,89.70
2019-04-01T07:39:56.727Z,89.80
2019-04-01T07:42:27.097Z,89.50
2019-04-01T07:44:58.127Z,88.10
2019-04-01T07:47:31.055Z,86.60
2019-04-01T07:50:02.115Z,85.60
2019-04-01T07:52:32.586Z,84.60
2019-04-01T07:55:03.153Z,84.00
2019-04-01T07:57:33.673Z,83.30
2019-04-01T08:00:06.375Z,83.30
2019-04-01T08:02:36.834Z,81.60
2019-04-01T08:05:07.731Z,81.60
2019-04-01T08:07:38.187Z,81.30
2019-04-01T08:10:09.586Z,80.70
2019-04-01T08:12:40.300Z,81.10
2019-04-01T08:15:11.937Z,79.60
2019-04-01T08:17:42.454Z,79.60
2019-04-01T08:20:18.710Z,79.40
2019-04-01T08:22:51.333Z,79.30
2019-04-01T08:25:21.857Z,79.20
2019-04-01T08:27:57.464Z,79.30
2019-04-01T08:30:33.251Z,78.40
2019-04-01T08:33:03.773Z,77.60
2019-04-01T08:35:34.409Z,76.50
2019-04-01T08:38:04.997Z,75.70
2019-04-01T08:40:37.630Z,75.50
2019-04-01T08:43:08.116Z,74.60
2019-04-01T08:45:39.384Z,73.90
2019-04-01T08:48:11.405Z,72.70
2019-04-01T08:50:42.018Z,72.00
2019-04-01T08:53:12.689Z,71.30
2019-04-01T08:55:43.258Z,70.60
2019-04-01T08:58:13.837Z,69.70
2019-04-01T09:00:44.423Z,68.60
2019-04-01T09:03:16.595Z,68.60
2019-04-01T09:05:47.126Z,66.20
2019-04-01T09:08:17.634Z,66.60
2019-04-01T09:10:48.732Z,68.30
2019-04-01T09:13:19.453Z,67.30
2019-04-01T09:15:49.917Z,65.40
2019-04-01T09:18:22.776Z,63.90
2019-04-01T09:20:53.266Z,63.80
2019-04-01T09:23:23.915Z,61.80
2019-04-01T09:25:55.451Z,60.30
2019-04-01T09:28:25.949Z,62.00
2019-04-01T09:30:56.406Z,61.40
2019-04-01T09:33:26.797Z,59.90
2019-04-01T09:35:57.298Z,59.90
2019-04-01T09:38:27.737Z,62.00
2019-04-01T09:40:58.172Z,60.10
2019-04-01T09:43:33.416Z,61.40
2019-04-01T09:46:04.836Z,62.10
2019-04-01T09:48:36.238Z,61.60
2019-04-01T09:51:06.636Z,61.30
2019-04-01T09:53:37.200Z,59.90
2019-04-01T09:56:09.640Z,59.30
2019-04-01T09:58:40.199Z,58.50
2019-04-01T10:01:10.584Z,59.30
2019-04-01T10:03:41.056Z,59.00
2019-04-01T10:06:11.534Z,58.80
2019-04-01T10:08:43.584Z,59.30
2019-04-01T10:11:15.747Z,58.10
2019-04-01T10:13:46.373Z,58.30
2019-04-01T10:16:16.850Z,56.60
2019-04-01T10:18:47.278Z,57.80
2019-04-01T10:21:17.797Z,57.70
2019-04-01T10:23:48.341Z,58.20
2019-04-01T10:26:18.873Z,56.30
2019-04-01T10:28:49.550Z,55.30
2019-04-01T10:31:20.019Z,56.10
2019-04-01T10:33:50.478Z,55.50
2019-04-01T10:36:20.919Z,54.70
2019-04-01T10:38:51.500Z,52.40
2019-04-01T10:41:22.051Z,52.30
2019-04-01T10:43:52.437Z,52.60
2019-04-01T10:46:28.676Z,51.90
2019-04-01T10:48:59.124Z,52.70
2019-04-01T10:51:29.666Z,49.50
2019-04-01T10:54:00.579Z,49.10
2019-04-01T10:56:31.376Z,49.60
2019-04-01T10:59:05.258Z,48.50
2019-04-01T11:01:37.473Z,47.90
2019-04-01T11:04:11.888Z,45.80
2019-04-01T11:06:46.716Z,46.30
2019-04-01T11:09:17.687Z,45.80
2019-04-01T11:11:52.396Z,44.90
2019-04-01T11:14:23.843Z,44.50
2019-04-01T11:16:58.609Z,44.80
2019-04-01T11:19:29.818Z,45.10
2019-04-01T11:22:00.597Z,46.20
2019-04-01T11:24:31.025Z,46.70
2019-04-01T11:27:03.859Z,46.60
2019-04-01T11:29:34.674Z,45.40
2019-04-01T11:32:05.442Z,45.00
2019-04-01T11:34:36.119Z,44.40
2019-04-01T11:37:06.627Z,43.00
2019-04-01T11:39:38.856Z,43.10
2019-04-01T11:42:14.138Z,40.60
2019-04-01T11:44:49.362Z,40.10
2019-04-01T11:47:22.230Z,39.40
2019-04-01T11:49:54.440Z,40.00
2019-04-01T11:52:27.705Z,40.60
2019-04-01T11:55:20.655Z,41.80
2019-04-01T11:57:51.229Z,41.60
2019-04-01T12:00:26.227Z,41.80
2019-04-01T12:02:57.940Z,41.40
2019-04-01T12:05:28.371Z,42.20
2019-04-01T12:07:58.875Z,42.70
2019-04-01T12:10:30.936Z,42.40
2019-04-01T12:13:03.514Z,42.00
2019-04-01T12:15:35.495Z,41.60
2019-04-01T12:18:07.179Z,41.60
2019-04-01T12:20:39.166Z,41.70
2019-04-01T12:23:11.442Z,42.10
2019-04-01T12:25:41.865Z,42.80
2019-04-01T12:28:12.345Z,44.30
2019-04-01T12:30:42.823Z,44.20
2019-04-01T12:33:13.319Z,44.80
2019-04-01T12:35:49.806Z,44.90
2019-04-01T12:38:26.770Z,45.00
2019-04-01T12:40:55.758Z,43.90
2019-04-01T12:43:27.918Z,44.00
2019-04-01T12:45:59.913Z,43.40
2019-04-01T12:48:31.843Z,43.20
2019-04-01T12:51:03.635Z,43.10
2019-04-01T12:53:34.073Z,43.00
2019-04-01T12:56:05.982Z,42.20
2019-04-01T12:58:36.363Z,42.30
2019-04-01T13:01:06.854Z,42.20
2019-04-01T13:03:37.362Z,42.30
2019-04-01T13:06:07.767Z,41.70
2019-04-01T13:08:38.147Z,42.70
2019-04-01T13:11:08.619Z,41.80
2019-04-01T13:13:39.341Z,42.60
2019-04-01T13:16:12.012Z,42.80
2019-04-01T13:18:45.181Z,43.50
2019-04-01T13:21:18.758Z,43.80
2019-04-01T13:23:49.312Z,44.20
2019-04-01T13:26:23.465Z,44.50
2019-04-01T13:28:57.785Z,44.90
2019-04-01T13:31:29.743Z,45.40
2019-04-01T13:34:00.796Z,45.80
2019-04-01T13:36:37.223Z,46.50
2019-04-01T13:39:09.066Z,46.30
2019-04-01T13:41:42.762Z,46.90
2019-04-01T13:44:19.477Z,46.90
2019-04-01T13:46:51.728Z,46.50
2019-04-01T13:49:25.158Z,46.00
2019-04-01T13:51:55.585Z,44.70
2019-04-01T13:54:26.109Z,44.70
2019-04-01T13:56:56.576Z,44.50
2019-04-01T13:59:27.110Z,44.30
2019-04-01T14:02:01.531Z,44.60
2019-04-01T14:04:32.065Z,45.20
2019-04-01T14:07:07.096Z,45.80
2019-04-01T14:09:44.106Z,45.60
2019-04-01T14:12:17.306Z,45.30
2019-04-01T14:14:47.912Z,45.80
2019-04-01T14:17:19.262Z,46.20
2019-04-01T14:19:53.663Z,45.70
2019-04-01T14:22:26.942Z,46.30
2019-04-01T14:24:57.492Z,46.70
2019-04-01T14:27:27.997Z,46.30
2019-04-01T14:29:58.529Z,47.00
2019-04-01T14:32:31.606Z,47.20
2019-04-01T14:35:03.660Z,47.50
2019-04-01T14:37:37.167Z,47.70
2019-04-01T14:40:10.765Z,48.40
2019-04-01T14:42:41.326Z,49.40
2019-04-01T14:45:11.994Z,50.10
2019-04-01T14:47:56.643Z,50.70
2019-04-01T14:50:18.718Z,51.60
2019-04-01T14:52:49.772Z,52.20
2019-04-01T14:55:22.010Z,52.80
2019-04-01T14:57:54.866Z,53.00
2019-04-01T15:00:25.559Z,53.60
2019-04-01T15:02:56.003Z,53.90
2019-04-01T15:05:26.683Z,54.40
2019-04-01T15:07:57.139Z,54.50
2019-04-01T15:10:27.616Z,55.20
2019-04-01T15:13:05.027Z,55.60
2019-04-01T15:15:30.159Z,55.70
2019-04-01T15:18:00.867Z,55.90
2019-04-01T15:20:31.482Z,56.30
2019-04-01T15:23:01.922Z,56.90
2019-04-01T15:25:32.426Z,57.30
2019-04-01T15:28:02.937Z,58.10
2019-04-01T15:30:36.518Z,58.70
2019-04-01T15:33:07.447Z,59.30
2019-04-01T15:35:37.976Z,59.90
2019-04-01T15:38:08.466Z,60.40
2019-04-01T15:40:38.944Z,61.20
2019-04-01T15:43:09.346Z,61.80
2019-04-01T15:45:39.783Z,62.10
2019-04-01T15:48:10.290Z,62.90
2019-04-01T15:50:40.596Z,63.60
2019-04-01T15:53:11.052Z,64.30
2019-04-01T15:55:41.481Z,64.30
2019-04-01T15:58:12.046Z,64.70
2019-04-01T16:00:45.369Z,64.30
2019-04-01T16:03:15.746Z,65.10
2019-04-01T16:05:46.234Z,65.30
2019-04-01T16:08:19.426Z,65.30
2019-04-01T16:10:50.356Z,66.10
2019-04-01T16:13:21.342Z,66.90
2019-04-01T16:15:52.017Z,66.60
2019-04-01T16:18:22.489Z,66.00
2019-04-01T16:20:59.477Z,66.70
2019-04-01T16:23:30.336Z,66.10
2019-04-01T16:26:01.048Z,67.00
2019-04-01T16:28:31.531Z,67.20
2019-04-01T16:31:02.762Z,67.30
2019-04-01T16:33:33.185Z,66.80
2019-04-01T16:36:03.790Z,67.50
2019-04-01T16:38:40.145Z,66.90
2019-04-01T16:41:29.883Z,67.10
2019-04-01T16:43:59.922Z,66.80
2019-04-01T16:46:32.753Z,66.80
2019-04-01T16:49:03.295Z,66.90
2019-04-01T16:51:41.329Z,66.70
2019-04-01T16:54:20.292Z,66.40
2019-04-01T16:57:03.904Z,66.80
2019-04-01T16:59:34.812Z,66.40
2019-04-01T17:02:18.131Z,66.80
2019-04-01T17:04:49.595Z,67.00
2019-04-01T17:07:24.506Z,67.20
2019-04-01T17:10:01.066Z,67.30
2019-04-01T17:46:04.032Z,65.50
2019-04-01T17:48:38.034Z,64.70
2019-04-01T17:51:28.360Z,65.00
2019-04-01T17:54:19.173Z,64.20
2019-04-01T17:56:52.025Z,63.70
2019-04-01T17:59:27.263Z,63.60
2019-04-01T18:01:59.846Z,63.60
2019-04-01T18:04:35.206Z,63.80
2019-04-01T18:07:07.787Z,63.60
2019-04-01T18:09:40.045Z,63.60
2019-04-01T18:12:20.383Z,63.20
2019-04-01T18:14:54.028Z,63.30
2019-04-01T18:17:28.216Z,62.40
2019-04-01T18:20:01.444Z,62.10
2019-04-01T18:22:34.435Z,63.20
2019-04-01T18:25:14.709Z,61.80
2019-04-01T18:27:52.864Z,62.20
2019-04-01T18:30:28.012Z,62.20
2019-04-01T18:33:01.819Z,62.20
2019-04-01T18:35:35.881Z,62.50
2019-04-01T18:38:08.411Z,62.30
2019-04-01T18:40:42.049Z,62.30
2019-04-01T18:43:18.834Z,62.60
2019-04-01T18:45:53.172Z,62.40
2019-04-01T18:48:28.135Z,61.40
2019-04-01T18:51:01.869Z,61.50
2019-04-01T18:53:36.384Z,61.60
2019-04-01T18:56:10.886Z,60.50
2019-04-01T18:58:44.699Z,59.90
2019-04-01T19:01:17.985Z,59.80
2019-04-01T19:03:50.398Z,59.00
2019-04-01T19:06:24.118Z,58.70
2019-04-01T19:09:08.793Z,58.20
2019-04-01T19:11:34.267Z,58.30
2019-04-01T19:14:11.074Z,57.60
2019-04-01T19:16:51.370Z,56.60
2019-04-01T19:19:23.509Z,56.40
2019-04-01T19:21:56.570Z,56.20
2019-04-01T19:24:28.376Z,55.50
2019-04-01T19:27:03.030Z,55.40
2019-04-01T19:29:34.131Z,55.40
2019-04-01T19:32:04.952Z,55.00
2019-04-01T19:34:36.148Z,53.70
2019-04-01T19:37:07.597Z,53.60
2019-04-01T19:39:38.090Z,53.30
2019-04-01T19:42:08.527Z,52.90
2019-04-01T19:44:38.987Z,52.40
2019-04-01T19:47:09.393Z,53.00
2019-04-01T19:49:40.177Z,53.40
2019-04-01T19:52:10.823Z,53.00
2019-04-01T19:54:41.305Z,53.00
2019-04-01T19:57:11.802Z,53.20
2019-04-01T19:59:42.245Z,52.70
2019-04-01T20:02:14.370Z,53.10
2019-04-01T20:04:45.000Z,52.90
2019-04-01T20:07:17.063Z,53.10
2019-04-01T20:09:48.622Z,53.50
2019-04-01T20:12:19.151Z,52.90
2019-04-01T20:14:49.591Z,53.00
2019-04-01T20:17:20.037Z,52.90
2019-04-01T20:19:50.618Z,53.40
2019-04-01T20:22:21.071Z,54.10
2019-04-01T20:24:51.728Z,55.00
2019-04-01T20:27:26.368Z,54.30
2019-04-01T20:29:56.833Z,54.50
2019-04-01T20:32:27.181Z,54.90
2019-04-01T20:34:59.585Z,55.40
2019-04-01T20:37:31.270Z,55.80
2019-04-01T20:40:03.440Z,56.30
2019-04-01T20:42:35.242Z,56.30
2019-04-01T20:45:10.806Z,56.90
2019-04-01T20:47:40.692Z,56.80
2019-04-01T20:50:11.998Z,56.70
2019-04-01T20:52:42.607Z,57.70
2019-04-01T20:55:13.449Z,58.10
2019-04-01T20:57:46.080Z,57.70
2019-04-01T21:00:18.162Z,58.00
2019-04-01T21:02:48.581Z,58.50
2019-04-01T21:05:19.236Z,58.40
2019-04-01T21:07:49.637Z,58.90
2019-04-01T21:10:20.042Z,58.90
2019-04-01T21:12:50.459Z,59.20
2019-04-01T21:15:20.924Z,58.80
2019-04-01T21:17:52.069Z,59.20
2019-04-01T21:20:23.037Z,59.60
2019-04-01T21:22:53.493Z,59.10
2019-04-01T21:25:24.475Z,59.60
2019-04-01T21:27:56.280Z,60.30
2019-04-01T21:30:26.827Z,60.80
2019-04-01T21:32:57.217Z,60.40
2019-04-01T21:35:27.748Z,60.70
2019-04-01T21:37:58.172Z,61.30
2019-04-01T21:40:28.648Z,60.50
2019-04-01T21:42:59.049Z,61.30
2019-04-01T21:45:29.519Z,61.10
2019-04-01T21:47:59.943Z,61.60
2019-04-01T21:50:30.327Z,61.70
2019-04-01T21:53:01.221Z,62.10
2019-04-01T21:55:32.822Z,62.60
2019-04-01T21:58:03.258Z,62.40
2019-04-01T22:00:35.380Z,62.80
2019-04-01T22:03:05.843Z,63.00
2019-04-01T22:05:36.371Z,63.00
2019-04-01T22:08:07.208Z,63.40
2019-04-01T22:10:39.848Z,63.20
2019-04-01T22:13:10.316Z,63.00
2019-04-01T22:15:40.823Z,63.60
2019-04-01T22:18:11.213Z,64.20
2019-04-01T22:20:42.684Z,63.10
2019-04-01T22:23:13.213Z,63.00
2019-04-01T22:25:43.646Z,63.20
2019-04-01T22:28:14.216Z,63.20
2019-04-01T22:30:45.164Z,63.50
2019-04-01T22:33:16.589Z,63.70
2019-04-01T22:35:47.026Z,64.30
2019-04-01T22:38:24.928Z,64.40
2019-04-01T22:40:49.846Z,64.80
2019-04-01T22:43:20.308Z,65.10
2019-04-01T22:45:50.676Z,64.90
2019-04-01T22:48:21.201Z,65.50
2019-04-01T22:50:51.617Z,65.60
2019-04-01T22:53:22.052Z,65.90
2019-04-01T22:55:52.481Z,65.20
2019-04-01T22:58:23.172Z,66.40
2019-04-01T23:00:53.572Z,66.20
2019-04-01T23:03:24.098Z,65.80
2019-04-01T23:05:55.750Z,66.40
2019-04-01T23:08:26.436Z,66.60
2019-04-01T23:10:56.978Z,66.20
2019-04-01T23:13:27.527Z,66.80
2019-04-01T23:16:01.013Z,66.70
2019-04-01T23:18:31.469Z,67.20
2019-04-01T23:21:02.236Z,67.40
2019-04-01T23:23:35.621Z,67.90
2019-04-01T23:26:06.051Z,68.00
2019-04-01T23:28:36.542Z,68.40
2019-04-01T23:31:07.027Z,68.80
2019-04-01T23:33:37.561Z,69.20
2019-04-01T23:36:08.006Z,69.20
2019-04-01T23:38:38.432Z,69.50
2019-04-01T23:41:08.928Z,69.60
2019-04-01T23:43:39.385Z,69.40
2019-04-01T23:46:09.768Z,69.60
2019-04-01T23:48:42.056Z,70.00
2019-04-01T23:51:12.295Z,70.10
2019-04-01T23:53:42.741Z,70.60
2019-04-01T23:56:13.148Z,70.20
2019-04-01T23:58:43.536Z,70.40
